createdAt,value
2022-11-22T00:00:28.908Z,0.00
2022-11-22T00:01:28.900Z,0.00
2022-11-22T00:02:28.950Z,0.00
2022-11-22T00:03:28.874Z,0.00
2022-11-22T00:04:28.878Z,0.00
2022-11-22T00:05:28.855Z,0.00
2022-11-22T00:06:28.848Z,0.00
2022-11-22T00:07:28.923Z,0.00
2022-11-22T00:08:28.828Z,0.00
2022-11-22T00:09:29.049Z,0.00
2022-11-22T00:10:28.805Z,0.00
2022-11-22T00:11:28.790Z,0.00
2022-11-22T00:12:28.785Z,0.00
2022-11-22T00:13:28.770Z,0.00
2022-11-22T00:14:28.763Z,0.00
2022-11-22T00:15:28.750Z,0.00
2022-11-22T00:16:28.741Z,0.00
2022-11-22T00:17:28.735Z,0.00
2022-11-22T00:18:28.722Z,0.00
2022-11-22T00:19:28.986Z,0.00
2022-11-22T00:20:28.697Z,0.00
2022-11-22T00:21:28.685Z,0.00
2022-11-22T00:22:28.677Z,0.00
2022-11-22T00:23:28.688Z,0.00
2022-11-22T00:24:28.657Z,0.00
2022-11-22T00:25:28.642Z,0.00
2022-11-22T00:26:28.631Z,0.00
2022-11-22T00:27:28.620Z,0.00
2022-11-22T00:28:28.613Z,0.00
2022-11-22T00:29:28.941Z,0.00
2022-11-22T00:30:28.590Z,0.00
2022-11-22T00:31:28.577Z,0.00
2022-11-22T00:32:28.568Z,0.00
2022-11-22T00:33:28.558Z,0.00
2022-11-22T00:34:28.548Z,0.00
2022-11-22T00:35:28.534Z,0.00
2022-11-22T00:36:28.527Z,0.00
2022-11-22T00:37:28.512Z,0.00
2022-11-22T00:38:28.504Z,0.00
2022-11-22T00:39:28.958Z,0.00
2022-11-22T00:40:28.483Z,0.00
2022-11-22T00:41:28.473Z,0.00
2022-11-22T00:42:28.462Z,0.00
2022-11-22T00:43:28.452Z,0.00
2022-11-22T00:44:28.442Z,0.00
2022-11-22T00:45:28.432Z,0.00
2022-11-22T00:46:28.424Z,0.00
2022-11-22T00:47:28.409Z,0.00
2022-11-22T00:48:28.402Z,0.00
2022-11-22T00:49:28.659Z,0.00
2022-11-22T00:50:28.384Z,0.00
2022-11-22T00:51:28.365Z,0.00
2022-11-22T00:52:28.357Z,0.00
2022-11-22T00:53:28.347Z,0.00
2022-11-22T00:54:28.336Z,0.00
2022-11-22T00:55:28.351Z,0.00
2022-11-22T00:56:28.313Z,0.00
2022-11-22T00:57:28.306Z,0.00
2022-11-22T00:58:28.296Z,0.00
2022-11-22T00:59:28.743Z,0.00
2022-11-22T01:00:28.271Z,0.00
2022-11-22T01:01:28.317Z,0.00
2022-11-22T01:02:28.251Z,0.00
2022-11-22T01:03:28.236Z,0.00
2022-11-22T01:04:28.229Z,0.00
2022-11-22T01:05:28.217Z,0.00
2022-11-22T01:06:28.214Z,0.00
2022-11-22T01:07:28.235Z,0.00
2022-11-22T01:08:28.187Z,0.00
2022-11-22T01:09:28.573Z,0.00
2022-11-22T01:10:28.167Z,0.00
2022-11-22T01:11:28.176Z,0.00
2022-11-22T01:12:28.146Z,0.00
2022-11-22T01:13:28.136Z,0.00
2022-11-22T01:14:28.123Z,0.00
2022-11-22T01:15:28.113Z,0.00
2022-11-22T01:16:28.101Z,0.00
2022-11-22T01:17:28.088Z,0.00
2022-11-22T01:18:28.081Z,0.00
2022-11-22T01:19:28.427Z,0.00
2022-11-22T01:20:28.061Z,0.00
2022-11-22T01:21:28.052Z,0.00
2022-11-22T01:22:28.063Z,0.00
2022-11-22T01:23:28.046Z,0.00
2022-11-22T01:24:28.016Z,0.00
2022-11-22T01:25:28.005Z,0.00
2022-11-22T01:26:27.997Z,0.00
2022-11-22T01:27:28.012Z,0.00
2022-11-22T01:28:27.975Z,0.00
2022-11-22T01:29:28.253Z,0.00
2022-11-22T01:30:27.953Z,0.00
2022-11-22T01:31:27.938Z,0.00
2022-11-22T01:32:27.933Z,0.00
2022-11-22T01:33:27.919Z,0.00
2022-11-22T01:34:27.912Z,0.00
2022-11-22T01:35:27.899Z,0.00
2022-11-22T01:36:27.888Z,0.00
2022-11-22T01:37:27.875Z,0.00
2022-11-22T01:38:27.869Z,0.00
2022-11-22T01:39:28.462Z,0.00
2022-11-22T01:40:27.846Z,0.00
2022-11-22T01:41:27.835Z,0.00
2022-11-22T01:42:27.825Z,0.00
2022-11-22T01:43:27.837Z,0.00
2022-11-22T01:44:27.801Z,0.00
2022-11-22T01:45:27.789Z,0.00
2022-11-22T01:46:27.781Z,0.00
2022-11-22T01:47:27.767Z,0.00
2022-11-22T01:48:27.763Z,0.00
2022-11-22T01:49:28.130Z,0.00
2022-11-22T01:50:27.736Z,0.00
2022-11-22T01:51:27.724Z,0.00
2022-11-22T01:52:27.716Z,0.00
2022-11-22T01:53:27.704Z,0.00
2022-11-22T01:54:27.697Z,0.00
2022-11-22T01:55:27.695Z,0.00
2022-11-22T01:56:27.672Z,0.00
2022-11-22T01:57:27.661Z,0.00
2022-11-22T01:58:27.653Z,0.00
2022-11-22T01:59:27.948Z,0.00
2022-11-22T02:00:27.628Z,0.00
2022-11-22T02:01:27.739Z,0.00
2022-11-22T02:02:27.610Z,0.00
2022-11-22T02:03:27.596Z,0.00
2022-11-22T02:04:27.603Z,0.00
2022-11-22T02:05:27.573Z,0.00
2022-11-22T02:06:27.568Z,0.00
2022-11-22T02:07:27.643Z,0.00
2022-11-22T02:08:27.544Z,0.00
2022-11-22T02:09:28.087Z,0.00
2022-11-22T02:10:27.521Z,0.00
2022-11-22T02:11:33.617Z,0.00
2022-11-22T02:12:27.499Z,0.00
2022-11-22T02:13:27.487Z,0.00
2022-11-22T02:14:27.478Z,0.00
2022-11-22T02:15:27.494Z,0.00
2022-11-22T02:16:27.463Z,0.00
2022-11-22T02:17:27.449Z,0.00
2022-11-22T02:18:27.437Z,0.00
2022-11-22T02:19:27.887Z,0.00
2022-11-22T02:20:27.418Z,0.00
2022-11-22T02:21:27.404Z,0.00
2022-11-22T02:22:27.394Z,0.00
2022-11-22T02:23:27.386Z,0.00
2022-11-22T02:24:27.375Z,0.00
2022-11-22T02:25:27.361Z,0.00
2022-11-22T02:26:27.350Z,0.00
2022-11-22T02:27:27.336Z,0.00
2022-11-22T02:28:27.327Z,0.00
2022-11-22T02:29:27.773Z,0.00
2022-11-22T02:30:27.304Z,0.00
2022-11-22T02:31:27.320Z,0.00
2022-11-22T02:32:27.283Z,0.00
2022-11-22T02:33:27.271Z,0.00
2022-11-22T02:34:27.270Z,0.00
2022-11-22T02:35:27.252Z,0.00
2022-11-22T02:36:27.239Z,0.00
2022-11-22T02:37:27.256Z,0.00
2022-11-22T02:38:27.213Z,0.00
2022-11-22T02:39:27.669Z,0.00
2022-11-22T02:40:27.203Z,0.00
2022-11-22T02:41:27.184Z,0.00
2022-11-22T02:42:27.170Z,0.00
2022-11-22T02:43:27.162Z,0.00
2022-11-22T02:44:27.152Z,0.00
2022-11-22T02:45:27.140Z,0.00
2022-11-22T02:46:27.127Z,0.00
2022-11-22T02:47:27.143Z,0.00
2022-11-22T02:48:27.105Z,0.00
2022-11-22T02:49:27.125Z,0.00
2022-11-22T02:50:27.084Z,0.00
2022-11-22T02:51:27.075Z,0.00
2022-11-22T02:52:27.062Z,0.00
2022-11-22T02:53:27.053Z,0.00
2022-11-22T02:54:27.040Z,0.00
2022-11-22T02:55:27.036Z,0.00
2022-11-22T02:56:27.021Z,0.00
2022-11-22T02:57:27.011Z,0.00
2022-11-22T02:58:26.997Z,0.00
2022-11-22T02:59:27.463Z,0.00
2022-11-22T03:00:26.973Z,0.00
2022-11-22T03:01:27.033Z,0.00
2022-11-22T03:02:26.950Z,0.00
2022-11-22T03:03:26.965Z,0.00
2022-11-22T03:04:26.929Z,0.00
2022-11-22T03:05:26.917Z,0.00
2022-11-22T03:06:26.908Z,0.00
2022-11-22T03:07:27.016Z,0.00
2022-11-22T03:08:26.892Z,0.00
2022-11-22T03:09:27.162Z,0.00
2022-11-22T03:10:26.864Z,0.00
2022-11-22T03:11:26.851Z,0.00
2022-11-22T03:12:26.843Z,0.00
2022-11-22T03:13:26.830Z,0.00
2022-11-22T03:14:26.819Z,0.00
2022-11-22T03:15:26.808Z,0.00
2022-11-22T03:16:26.797Z,0.00
2022-11-22T03:17:26.787Z,0.00
2022-11-22T03:18:26.774Z,0.00
2022-11-22T03:19:26.792Z,0.00
2022-11-22T03:20:26.758Z,0.00
2022-11-22T03:21:26.746Z,0.00
2022-11-22T03:22:26.731Z,0.00
2022-11-22T03:23:26.730Z,0.00
2022-11-22T03:24:26.760Z,0.00
2022-11-22T03:25:26.700Z,0.00
2022-11-22T03:26:26.688Z,0.00
2022-11-22T03:27:26.679Z,0.00
2022-11-22T03:28:26.665Z,0.00
2022-11-22T03:29:26.668Z,0.00
2022-11-22T03:30:26.643Z,0.00
2022-11-22T03:31:26.636Z,0.00
2022-11-22T03:32:26.620Z,0.00
2022-11-22T03:33:26.615Z,0.00
2022-11-22T03:34:26.603Z,0.00
2022-11-22T03:35:26.611Z,0.00
2022-11-22T03:36:26.575Z,0.00
2022-11-22T03:39:12.038Z,0.00
2022-11-22T03:40:12.035Z,0.00
2022-11-22T03:41:12.009Z,0.00
2022-11-22T03:42:13.625Z,0.00
2022-11-22T03:43:11.989Z,0.00
2022-11-22T03:44:11.981Z,0.00
2022-11-22T03:45:11.967Z,0.00
2022-11-22T03:46:11.957Z,0.00
2022-11-22T03:47:11.944Z,0.00
2022-11-22T03:48:11.936Z,0.00
2022-11-22T03:49:11.924Z,0.00
2022-11-22T03:50:11.916Z,0.00
2022-11-22T03:51:11.931Z,0.00
2022-11-22T03:52:11.894Z,0.00
2022-11-22T03:53:11.879Z,0.00
2022-11-22T03:54:11.871Z,0.00
2022-11-22T03:55:11.860Z,0.00
2022-11-22T03:56:11.850Z,0.00
2022-11-22T03:57:11.839Z,0.00
2022-11-22T03:58:11.823Z,0.00
2022-11-22T03:59:11.813Z,0.00
2022-11-22T04:00:11.805Z,0.00
2022-11-22T04:01:16.397Z,0.00
2022-11-22T04:02:11.843Z,0.00
2022-11-22T04:03:11.766Z,0.00
2022-11-22T04:04:11.756Z,0.00
2022-11-22T04:05:11.746Z,0.00
2022-11-22T04:06:11.738Z,0.00
2022-11-22T04:07:11.815Z,0.00
2022-11-22T04:08:11.713Z,0.00
2022-11-22T04:09:11.776Z,0.00
2022-11-22T04:10:11.692Z,0.00
2022-11-22T04:11:11.676Z,0.00
2022-11-22T04:12:11.668Z,0.00
2022-11-22T04:13:11.660Z,0.00
2022-11-22T04:14:11.643Z,0.00
2022-11-22T04:15:11.629Z,0.00
2022-11-22T04:16:11.621Z,0.00
2022-11-22T04:17:11.610Z,0.00
2022-11-22T04:18:11.599Z,0.00
2022-11-22T04:19:11.586Z,0.00
2022-11-22T04:20:11.574Z,0.00
2022-11-22T04:21:11.561Z,0.00
2022-11-22T04:22:11.553Z,0.00
2022-11-22T04:23:11.567Z,0.00
2022-11-22T04:24:11.529Z,0.00
2022-11-22T04:25:11.515Z,0.00
2022-11-22T04:26:11.507Z,0.00
2022-11-22T04:27:11.492Z,0.00
2022-11-22T04:28:11.482Z,0.00
2022-11-22T04:29:11.488Z,0.00
2022-11-22T04:30:14.773Z,0.00
2022-11-22T04:31:11.452Z,0.00
2022-11-22T04:32:11.437Z,0.00
2022-11-22T04:33:11.424Z,0.00
2022-11-22T04:34:11.415Z,0.00
2022-11-22T04:35:11.403Z,0.00
2022-11-22T04:36:13.421Z,0.00
2022-11-22T04:37:11.379Z,0.00
2022-11-22T04:38:11.365Z,0.00
2022-11-22T04:39:11.378Z,0.00
2022-11-22T04:40:11.352Z,0.00
2022-11-22T04:41:11.333Z,0.00
2022-11-22T04:42:11.329Z,0.00
2022-11-22T04:43:11.309Z,0.00
2022-11-22T04:44:11.298Z,0.00
2022-11-22T04:45:11.288Z,0.00
2022-11-22T04:46:11.277Z,0.00
2022-11-22T04:47:11.261Z,0.00
2022-11-22T04:48:11.253Z,0.00
2022-11-22T04:49:11.239Z,0.00
2022-11-22T04:50:11.248Z,0.00
2022-11-22T04:51:11.218Z,0.00
2022-11-22T04:52:11.206Z,0.00
2022-11-22T04:53:11.202Z,0.00
2022-11-22T04:54:11.188Z,0.00
2022-11-22T04:55:11.197Z,0.00
2022-11-22T04:56:11.162Z,0.00
2022-11-22T04:57:11.157Z,0.00
2022-11-22T04:58:11.156Z,0.00
2022-11-22T04:59:11.143Z,0.00
2022-11-22T05:00:11.146Z,0.00
2022-11-22T05:01:11.325Z,0.00
2022-11-22T05:02:11.110Z,0.00
2022-11-22T05:03:11.098Z,0.00
2022-11-22T05:04:11.105Z,0.00
2022-11-22T05:05:11.059Z,0.00
2022-11-22T05:06:11.048Z,0.00
2022-11-22T05:07:11.087Z,0.00
2022-11-22T05:08:11.027Z,0.00
2022-11-22T05:09:11.011Z,0.00
2022-11-22T05:10:11.001Z,0.00
2022-11-22T05:11:11.014Z,0.00
2022-11-22T05:12:11.436Z,0.00
2022-11-22T05:13:10.966Z,0.00
2022-11-22T05:14:10.958Z,0.00
2022-11-22T05:15:10.943Z,0.00
2022-11-22T05:16:10.938Z,0.00
2022-11-22T05:17:13.468Z,0.00
2022-11-22T05:18:10.909Z,0.00
2022-11-22T05:19:11.132Z,0.00
2022-11-22T05:20:10.889Z,0.00
2022-11-22T05:21:10.880Z,0.00
2022-11-22T05:22:10.868Z,0.00
2022-11-22T05:23:10.853Z,0.00
2022-11-22T05:24:10.844Z,0.00
2022-11-22T05:25:10.835Z,0.00
2022-11-22T05:26:10.826Z,0.00
2022-11-22T05:27:10.831Z,0.00
2022-11-22T05:28:10.800Z,0.00
2022-11-22T05:29:10.796Z,0.00
2022-11-22T05:30:10.774Z,0.00
2022-11-22T05:31:10.766Z,0.00
2022-11-22T05:32:10.752Z,0.00
2022-11-22T05:33:10.743Z,0.00
2022-11-22T05:34:10.730Z,0.00
2022-11-22T05:35:10.719Z,0.00
2022-11-22T05:36:10.723Z,0.00
2022-11-22T05:37:10.701Z,0.00
2022-11-22T05:38:10.688Z,0.00
2022-11-22T05:39:10.672Z,0.00
2022-11-22T05:40:10.667Z,0.00
2022-11-22T05:41:10.652Z,0.00
2022-11-22T05:42:10.639Z,0.00
2022-11-22T05:43:10.662Z,0.00
2022-11-22T05:44:10.617Z,0.00
2022-11-22T05:45:10.608Z,0.00
2022-11-22T05:46:10.595Z,0.00
2022-11-22T05:47:10.589Z,0.00
2022-11-22T05:48:10.582Z,0.00
2022-11-22T05:49:10.564Z,0.00
2022-11-22T05:50:10.552Z,0.00
2022-11-22T05:51:10.545Z,0.00
2022-11-22T05:52:10.531Z,0.00
2022-11-22T05:53:10.520Z,0.00
2022-11-22T05:54:10.507Z,0.00
2022-11-22T05:55:10.591Z,0.00
2022-11-22T05:56:10.484Z,0.00
2022-11-22T05:57:10.475Z,0.00
2022-11-22T05:58:10.467Z,0.00
2022-11-22T05:59:10.484Z,0.00
2022-11-22T06:00:10.444Z,0.00
2022-11-22T06:01:10.433Z,0.00
2022-11-22T06:02:10.494Z,0.00
2022-11-22T06:03:10.415Z,0.00
2022-11-22T06:04:10.397Z,0.00
2022-11-22T06:05:10.387Z,0.00
2022-11-22T06:06:10.381Z,0.00
2022-11-22T06:07:10.713Z,0.00
2022-11-22T06:08:10.353Z,0.00
2022-11-22T06:09:10.342Z,0.00
2022-11-22T06:10:10.331Z,0.00
2022-11-22T06:11:10.322Z,0.00
2022-11-22T06:12:10.309Z,0.00
2022-11-22T06:13:10.299Z,0.00
2022-11-22T06:14:10.285Z,0.00
2022-11-22T06:15:10.303Z,0.00
2022-11-22T06:16:10.264Z,0.00
2022-11-22T06:17:10.253Z,0.00
2022-11-22T06:18:10.243Z,0.00
2022-11-22T06:19:10.231Z,0.00
2022-11-22T06:20:10.219Z,0.00
2022-11-22T06:21:10.211Z,0.00
2022-11-22T06:22:10.201Z,0.00
2022-11-22T06:23:10.188Z,0.00
2022-11-22T06:24:10.175Z,0.00
2022-11-22T06:25:10.167Z,0.00
2022-11-22T06:26:10.155Z,0.00
2022-11-22T06:27:10.154Z,0.00
2022-11-22T06:28:10.136Z,0.00
2022-11-22T06:29:10.129Z,0.00
2022-11-22T06:30:10.119Z,0.00
2022-11-22T06:31:10.135Z,4.00
2022-11-22T06:32:10.087Z,4.00
2022-11-22T06:33:10.087Z,4.00
2022-11-22T06:34:10.077Z,0.00
2022-11-22T06:35:10.058Z,4.00
2022-11-22T06:36:10.056Z,4.00
2022-11-22T06:37:10.039Z,4.00
2022-11-22T06:38:10.031Z,4.00
2022-11-22T06:39:10.012Z,4.00
2022-11-22T06:40:10.008Z,4.00
2022-11-22T06:41:10.008Z,8.00
2022-11-22T06:42:09.981Z,8.00
2022-11-22T06:43:09.974Z,8.00
2022-11-22T06:44:09.974Z,12.00
2022-11-22T06:45:09.949Z,12.00
2022-11-22T06:46:09.936Z,16.00
2022-11-22T06:47:09.946Z,16.00
2022-11-22T06:48:09.910Z,20.00
2022-11-22T06:49:09.905Z,24.00
2022-11-22T06:50:09.892Z,24.00
2022-11-22T06:51:09.882Z,24.00
2022-11-22T06:52:09.867Z,28.00
2022-11-22T06:53:26.297Z,32.00
2022-11-22T06:54:10.871Z,32.00
2022-11-22T06:55:34.621Z,36.00
2022-11-22T06:56:10.850Z,36.00
2022-11-22T06:57:09.814Z,40.00
2022-11-22T06:58:09.821Z,48.00
2022-11-22T06:59:09.789Z,48.00
2022-11-22T07:00:09.781Z,52.00
2022-11-22T07:01:09.906Z,56.00
2022-11-22T07:02:09.762Z,60.00
2022-11-22T07:03:09.774Z,60.00
2022-11-22T07:04:09.739Z,64.00
2022-11-22T07:05:25.154Z,72.00
2022-11-22T07:06:10.743Z,76.00
2022-11-22T07:07:09.738Z,92.00
2022-11-22T07:08:13.747Z,100.00
2022-11-22T07:09:09.686Z,104.00
2022-11-22T07:10:09.668Z,108.00
2022-11-22T07:11:09.697Z,108.00
2022-11-22T07:12:09.651Z,116.00
2022-11-22T07:13:09.635Z,124.00
2022-11-22T07:14:09.799Z,136.00
2022-11-22T07:15:09.726Z,144.00
2022-11-22T07:16:09.603Z,164.00
2022-11-22T07:17:09.590Z,188.00
2022-11-22T07:18:09.678Z,188.00
2022-11-22T07:19:09.601Z,200.00
2022-11-22T07:20:09.559Z,216.00
2022-11-22T07:21:13.092Z,236.00
2022-11-22T07:22:09.535Z,256.00
2022-11-22T07:23:09.527Z,272.00
2022-11-22T07:24:09.519Z,280.00
2022-11-22T07:25:09.505Z,300.00
2022-11-22T07:26:09.492Z,296.00
2022-11-22T07:27:09.480Z,320.00
2022-11-22T07:28:09.470Z,340.00
2022-11-22T07:29:09.461Z,372.00
2022-11-22T07:30:09.453Z,388.00
2022-11-22T07:31:09.438Z,380.00
2022-11-22T07:32:09.426Z,368.00
2022-11-22T07:33:09.411Z,400.00
2022-11-22T07:34:09.404Z,404.00
2022-11-22T07:35:09.426Z,412.00
2022-11-22T07:36:09.389Z,424.00
2022-11-22T07:37:09.538Z,444.00
2022-11-22T07:38:09.357Z,488.00
2022-11-22T07:39:09.352Z,508.00
2022-11-22T07:40:09.337Z,588.00
2022-11-22T07:41:09.334Z,656.00
2022-11-22T07:42:09.314Z,688.00
2022-11-22T07:43:09.305Z,716.00
2022-11-22T07:44:09.296Z,712.00
2022-11-22T07:45:09.279Z,772.00
2022-11-22T07:46:09.268Z,848.00
2022-11-22T07:47:09.259Z,964.00
2022-11-22T07:48:09.246Z,900.00
2022-11-22T07:49:09.242Z,948.00
2022-11-22T07:50:09.221Z,944.00
2022-11-22T07:51:09.242Z,952.00
2022-11-22T07:52:09.204Z,984.00
2022-11-22T07:53:09.196Z,1008.00
2022-11-22T07:54:09.180Z,1132.00
2022-11-22T07:55:13.924Z,1204.00
2022-11-22T07:56:09.155Z,1136.00
2022-11-22T07:57:09.145Z,1232.00
2022-11-22T07:58:09.135Z,1224.00
2022-11-22T07:59:09.129Z,1288.00
2022-11-22T08:00:09.117Z,1352.00
2022-11-22T08:01:09.264Z,1360.00
2022-11-22T08:02:09.222Z,1380.00
2022-11-22T08:03:09.087Z,1264.00
2022-11-22T08:04:09.073Z,1292.00
2022-11-22T08:05:09.069Z,1312.00
2022-11-22T08:06:09.053Z,1072.00
2022-11-22T08:07:09.191Z,968.00
2022-11-22T08:08:09.022Z,1072.00
2022-11-22T08:09:09.011Z,1012.00
2022-11-22T08:10:09.002Z,1208.00
2022-11-22T08:11:08.999Z,1284.00
2022-11-22T08:12:08.980Z,1336.00
2022-11-22T08:13:08.969Z,1160.00
2022-11-22T08:14:08.957Z,1156.00
2022-11-22T08:15:08.960Z,1152.00
2022-11-22T08:16:08.990Z,1168.00
2022-11-22T08:17:08.934Z,1196.00
2022-11-22T08:18:08.913Z,1192.00
2022-11-22T08:19:08.907Z,1212.00
2022-11-22T08:20:08.892Z,1356.00
2022-11-22T08:21:08.877Z,1504.00
2022-11-22T08:22:08.872Z,1448.00
2022-11-22T08:23:08.977Z,1348.00
2022-11-22T08:24:08.846Z,1332.00
2022-11-22T08:25:08.852Z,1384.00
2022-11-22T08:26:08.823Z,1492.00
2022-11-22T08:27:08.812Z,1444.00
2022-11-22T08:28:08.801Z,1380.00
2022-11-22T08:29:13.904Z,1292.00
2022-11-22T08:30:08.776Z,1276.00
2022-11-22T08:31:08.797Z,1508.00
2022-11-22T08:32:08.764Z,1440.00
2022-11-22T08:33:08.751Z,1548.00
2022-11-22T08:34:08.729Z,1596.00
2022-11-22T08:35:08.723Z,1568.00
2022-11-22T08:36:08.714Z,1640.00
2022-11-22T08:37:08.705Z,1660.00
2022-11-22T08:38:08.839Z,1612.00
2022-11-22T08:39:08.870Z,1604.00
2022-11-22T08:40:08.669Z,1608.00
2022-11-22T08:41:08.677Z,1544.00
2022-11-22T08:42:08.641Z,1552.00
2022-11-22T08:43:08.634Z,1724.00
2022-11-22T08:44:08.618Z,1872.00
2022-11-22T08:45:08.613Z,1788.00
2022-11-22T08:46:08.601Z,1856.00
2022-11-22T08:47:08.589Z,1812.00
2022-11-22T08:48:08.579Z,2160.00
2022-11-22T08:49:08.569Z,2076.00
2022-11-22T08:50:08.555Z,1960.00
2022-11-22T08:51:08.568Z,1712.00
2022-11-22T08:52:08.536Z,1980.00
2022-11-22T08:53:08.532Z,2120.00
2022-11-22T08:54:08.509Z,2000.00
2022-11-22T08:55:08.621Z,2044.00
2022-11-22T08:56:08.491Z,1952.00
2022-11-22T08:57:08.480Z,1688.00
2022-11-22T08:58:08.463Z,1680.00
2022-11-22T08:59:08.526Z,1596.00
2022-11-22T09:00:08.441Z,1924.00
2022-11-22T09:01:08.477Z,1908.00
2022-11-22T09:02:08.424Z,1912.00
2022-11-22T09:03:08.409Z,1748.00
2022-11-22T09:04:08.402Z,1856.00
2022-11-22T09:05:08.390Z,1808.00
2022-11-22T09:08:23.958Z,1660.00
2022-11-22T09:09:35.910Z,1548.00
2022-11-22T09:10:08.330Z,1716.00
2022-11-22T09:11:08.443Z,1784.00
2022-11-22T09:12:08.307Z,1876.00
2022-11-22T09:13:08.296Z,1692.00
2022-11-22T09:14:08.283Z,1840.00
2022-11-22T09:15:08.276Z,2176.00
2022-11-22T09:16:08.259Z,1972.00
2022-11-22T09:17:11.982Z,2172.00
2022-11-22T09:18:09.269Z,2276.00
2022-11-22T09:19:08.237Z,2420.00
2022-11-22T09:20:08.222Z,2460.00
2022-11-22T09:21:08.204Z,2628.00
2022-11-22T09:22:08.192Z,2500.00
2022-11-22T09:23:08.182Z,2608.00
2022-11-22T09:24:08.167Z,2584.00
2022-11-22T09:25:08.162Z,2664.00
2022-11-22T09:26:08.145Z,2996.00
2022-11-22T09:27:08.260Z,3096.00
2022-11-22T09:28:08.125Z,3120.00
2022-11-22T09:29:08.123Z,3440.00
2022-11-22T09:30:08.101Z,3652.00
2022-11-22T09:31:08.122Z,3848.00
2022-11-22T09:32:08.080Z,3792.00
2022-11-22T09:33:08.070Z,3440.00
2022-11-22T09:34:08.060Z,3136.00
2022-11-22T09:35:08.050Z,2864.00
2022-11-22T09:36:08.044Z,3088.00
2022-11-22T09:37:08.028Z,2976.00
2022-11-22T09:38:08.015Z,3076.00
2022-11-22T09:39:08.012Z,3488.00
2022-11-22T09:40:08.002Z,3744.00
2022-11-22T09:41:07.981Z,3824.00
2022-11-22T09:42:07.968Z,3972.00
2022-11-22T09:43:08.085Z,3932.00
2022-11-22T09:44:07.947Z,4136.00
2022-11-22T09:45:07.942Z,4376.00
2022-11-22T09:46:07.926Z,4604.00
2022-11-22T09:47:07.911Z,4508.00
2022-11-22T09:48:09.990Z,4332.00
2022-11-22T09:49:07.891Z,4160.00
2022-11-22T09:50:07.905Z,4076.00
2022-11-22T09:51:07.870Z,4204.00
2022-11-22T09:52:07.862Z,4292.00
2022-11-22T09:53:07.846Z,4132.00
2022-11-22T09:54:07.837Z,3888.00
2022-11-22T09:55:07.827Z,3676.00
2022-11-22T09:56:07.817Z,3772.00
2022-11-22T09:57:07.802Z,3864.00
2022-11-22T09:58:07.795Z,3920.00
2022-11-22T09:59:07.900Z,4128.00
2022-11-22T10:00:07.769Z,4304.00
2022-11-22T10:01:07.810Z,4352.00
2022-11-22T10:02:18.112Z,4276.00
2022-11-22T10:03:08.759Z,4336.00
2022-11-22T10:06:19.750Z,5444.00
2022-11-22T10:07:19.739Z,6144.00
2022-11-22T10:08:19.688Z,6204.00
2022-11-22T10:09:19.681Z,5816.00
2022-11-22T10:10:19.684Z,5916.00
2022-11-22T10:11:19.658Z,6560.00
2022-11-22T10:12:19.646Z,6392.00
2022-11-22T10:13:19.634Z,6372.00
2022-11-22T10:14:19.757Z,7400.00
2022-11-22T10:15:19.611Z,7492.00
2022-11-22T10:16:19.608Z,7300.00
2022-11-22T10:17:19.596Z,7140.00
2022-11-22T10:18:19.584Z,8108.00
2022-11-22T10:19:19.571Z,7916.00
2022-11-22T10:20:19.561Z,7196.00
2022-11-22T10:21:19.549Z,7144.00
2022-11-22T10:22:19.544Z,7988.00
2022-11-22T10:23:19.528Z,9368.00
2022-11-22T10:24:19.517Z,9028.00
2022-11-22T10:25:19.511Z,8736.00
2022-11-22T10:26:19.496Z,8340.00
2022-11-22T10:27:19.489Z,7528.00
2022-11-22T10:28:19.473Z,7836.00
2022-11-22T10:29:19.460Z,7808.00
2022-11-22T10:30:19.569Z,8300.00
2022-11-22T10:31:19.438Z,7400.00
2022-11-22T10:32:19.432Z,8896.00
2022-11-22T10:33:19.415Z,8972.00
2022-11-22T10:34:19.407Z,9192.00
2022-11-22T10:35:19.404Z,10780.00
2022-11-22T10:36:19.383Z,11912.00
2022-11-22T10:37:19.372Z,12520.00
2022-11-22T10:38:19.379Z,14200.00
2022-11-22T10:39:19.347Z,14088.00
2022-11-22T10:40:19.340Z,13688.00
2022-11-22T10:41:19.327Z,13540.00
2022-11-22T10:42:19.318Z,13644.00
2022-11-22T10:43:19.304Z,13916.00
2022-11-22T10:44:19.296Z,14308.00
2022-11-22T10:45:19.284Z,14344.00
2022-11-22T10:46:19.390Z,14700.00
2022-11-22T10:47:19.261Z,14784.00
2022-11-22T10:48:19.251Z,15176.00
2022-11-22T10:49:19.238Z,15656.00
2022-11-22T10:50:19.232Z,15588.00
2022-11-22T10:51:19.221Z,14224.00
2022-11-22T10:52:19.217Z,14544.00
2022-11-22T10:53:19.195Z,15016.00
2022-11-22T10:54:19.190Z,15372.00
2022-11-22T10:55:19.175Z,15472.00
2022-11-22T10:56:19.166Z,14668.00
2022-11-22T10:57:19.154Z,14132.00
2022-11-22T10:58:19.141Z,12872.00
2022-11-22T10:59:22.071Z,12788.00
2022-11-22T11:00:19.120Z,11860.00
2022-11-22T11:01:19.164Z,10948.00
2022-11-22T11:02:19.220Z,10960.00
2022-11-22T11:03:19.090Z,10672.00
2022-11-22T11:04:19.075Z,10300.00
2022-11-22T11:05:19.064Z,9924.00
2022-11-22T11:06:29.509Z,10300.00
2022-11-22T11:07:20.138Z,11396.00
2022-11-22T11:08:42.186Z,11968.00
2022-11-22T11:10:32.428Z,12392.00
2022-11-22T11:11:20.024Z,12140.00
2022-11-22T11:12:18.988Z,12672.00
2022-11-22T11:13:18.975Z,12580.00
2022-11-22T11:14:18.969Z,12800.00
2022-11-22T11:15:18.955Z,13052.00
2022-11-22T11:16:18.946Z,13372.00
2022-11-22T11:17:18.937Z,13432.00
2022-11-22T11:18:19.047Z,12952.00
2022-11-22T11:19:18.996Z,13152.00
2022-11-22T11:20:18.953Z,12980.00
2022-11-22T11:21:18.935Z,13188.00
2022-11-22T11:22:36.096Z,12912.00
2022-11-22T11:23:20.030Z,12712.00
2022-11-22T11:24:19.067Z,12260.00
2022-11-22T11:25:18.980Z,11768.00
2022-11-22T11:26:19.061Z,11352.00
2022-11-22T11:27:18.857Z,10948.00
2022-11-22T11:28:18.834Z,10924.00
2022-11-22T11:29:18.809Z,10840.00
2022-11-22T11:30:18.803Z,11260.00
2022-11-22T11:31:18.781Z,12288.00
2022-11-22T11:32:18.780Z,11704.00
2022-11-22T11:33:18.762Z,12096.00
2022-11-22T11:34:18.868Z,11744.00
2022-11-22T11:35:18.739Z,11976.00
2022-11-22T11:36:18.724Z,11508.00
2022-11-22T11:37:18.717Z,11148.00
2022-11-22T11:38:18.713Z,11052.00
2022-11-22T11:39:18.703Z,10996.00
2022-11-22T11:40:18.692Z,10632.00
2022-11-22T11:41:18.756Z,10488.00
2022-11-22T11:42:18.664Z,10532.00
2022-11-22T11:43:18.660Z,10584.00
2022-11-22T11:44:18.636Z,10636.00
2022-11-22T11:45:18.641Z,10864.00
2022-11-22T11:46:18.621Z,11020.00
2022-11-22T11:47:18.615Z,11068.00
2022-11-22T11:48:18.597Z,10920.00
2022-11-22T11:49:18.585Z,10660.00
2022-11-22T11:50:23.732Z,10584.00
2022-11-22T11:51:18.559Z,10536.00
2022-11-22T11:52:18.553Z,10340.00
2022-11-22T11:53:18.537Z,10192.00
2022-11-22T11:54:18.525Z,10176.00
2022-11-22T11:55:18.512Z,9452.00
2022-11-22T11:56:18.502Z,8868.00
2022-11-22T11:57:18.491Z,8596.00
2022-11-22T11:58:18.481Z,8452.00
2022-11-22T11:59:18.499Z,8228.00
2022-11-22T12:00:18.486Z,7724.00
2022-11-22T12:01:18.452Z,7660.00
2022-11-22T12:02:18.494Z,7684.00
2022-11-22T12:03:18.528Z,7860.00
2022-11-22T12:04:18.521Z,7780.00
2022-11-22T12:05:18.463Z,7608.00
2022-11-22T12:06:18.548Z,7932.00
2022-11-22T12:07:18.571Z,8252.00
2022-11-22T12:08:18.500Z,7876.00
2022-11-22T12:09:18.392Z,7564.00
2022-11-22T12:10:18.543Z,7460.00
2022-11-22T12:11:18.538Z,7332.00
2022-11-22T12:12:18.399Z,7552.00
2022-11-22T12:13:18.386Z,7560.00
2022-11-22T12:14:20.479Z,7192.00
2022-11-22T12:15:18.830Z,7108.00
2022-11-22T12:16:18.329Z,7280.00
2022-11-22T12:17:18.409Z,7280.00
2022-11-22T12:18:18.266Z,7208.00
2022-11-22T12:19:24.406Z,6944.00
2022-11-22T12:20:19.265Z,6812.00
2022-11-22T12:21:18.229Z,6764.00
2022-11-22T12:22:29.361Z,6752.00
2022-11-22T12:23:19.229Z,6736.00
2022-11-22T12:25:33.277Z,6644.00
2022-11-22T12:26:19.211Z,6532.00
2022-11-22T12:27:18.165Z,6468.00
2022-11-22T12:28:18.153Z,6468.00
2022-11-22T12:29:18.156Z,6476.00
2022-11-22T12:30:18.126Z,6468.00
2022-11-22T12:31:18.115Z,6320.00
2022-11-22T12:32:18.110Z,6268.00
2022-11-22T12:33:18.095Z,6188.00
2022-11-22T12:34:18.089Z,6108.00
2022-11-22T12:35:18.075Z,6136.00
2022-11-22T12:36:18.071Z,6064.00
2022-11-22T12:37:18.107Z,6008.00
2022-11-22T12:38:18.156Z,5952.00
2022-11-22T12:39:18.037Z,5948.00
2022-11-22T12:40:18.027Z,6012.00
2022-11-22T12:41:18.009Z,5936.00
2022-11-22T12:42:22.777Z,5816.00
2022-11-22T12:43:18.428Z,5736.00
2022-11-22T12:44:17.979Z,5620.00
2022-11-22T12:45:17.980Z,5608.00
2022-11-22T12:46:17.955Z,5664.00
2022-11-22T12:47:17.942Z,5656.00
2022-11-22T12:48:17.938Z,5628.00
2022-11-22T12:49:17.920Z,5616.00
2022-11-22T12:50:17.907Z,5664.00